Current | Forecast
Updated: 5:00 PM JST on February 19, 2018
Observed at Hiroshima Airport, Japan
Temperature 41°F
Humidity 65%
Dew Point 30°F
Wind Variable at 2 mph
Pressure 30.04 in (Steady)
Conditions Mostly Cloudy
Visibility 6.2 miles
UV 0 out of 16
Clouds (FEW) : 2000 ft
Mostly Cloudy (BKN) : 10000 ft
Yesterday's Maximum 45°F
Yesterday's Minimum 36°F approx.
Yesterday's Heating Degree Days 25 approx.
Sunrise6:51 AM JST
Sunset5:56 PM JST
Moon Rise8:48 AM JST
Moon Set9:09 PM JST
Moon PhaseMoon Phase
Waxing Crescent
Raw METARMETAR RJOA 190800Z VRB02KT 9999 FEW020 BKN100 BKN/// 05/M01 Q1017


Monday
. High: 65° F.
Tuesday
. High: 71° F.
Wednesday
. High: 71° F.
Thursday
. High: 69° F.
Friday
. High: 69° F.
Saturday
. High: 71° F.
Sunday
. High: 75° F.
Monday
. High: 77° F.

Units: English | Metric

Find the Weather for any City, State or Zipcode, or Country:

U.S. State List | Severe Weather | Tropical Storms | Ski Conditions
United States | Canada | Central America | South America | Asia | Europe | Australia | Africa | Islands

Weather Underground

© Copyright 2018
The Weather Company, LLC